Time;durP1;ratioP1;P1;durP2;ratioP2;P2;SDS_P1;SDS_P2;PMS_P1;PMS_P2;Temp;Humidity;BMP_temperature;BMP_pressure;BME280_temperature;BME280_humidity;BME280_pressure;Samples;Min_cycle;Max_cycle;Signal;HPM_P1;HPM_P2
2021/03/14 00:00:43;;;;;;;0.90;0.50;;;6.20;99.90;;;;;;5074708;28;20233;-68
2021/03/14 00:03:10;;;;;;;0.47;0.47;;;6.20;99.90;;;;;;5074364;28;20229;-68
2021/03/14 00:05:38;;;;;;;1.58;0.60;;;6.20;99.90;;;;;;5074401;28;20297;-68
2021/03/14 00:08:05;;;;;;;0.50;0.50;;;6.30;99.90;;;;;;5074205;28;20696;-68
2021/03/14 00:10:32;;;;;;;0.30;0.30;;;6.40;99.90;;;;;;5074419;28;20199;-68
2021/03/14 00:12:58;;;;;;;0.63;0.40;;;6.40;99.90;;;;;;5074179;28;20722;-68
2021/03/14 00:15:25;;;;;;;1.20;0.32;;;6.40;99.90;;;;;;5074512;28;20595;-68
2021/03/14 00:17:52;;;;;;;2.53;0.40;;;6.40;99.90;;;;;;5073963;28;20743;-68
2021/03/14 00:20:18;;;;;;;0.50;0.40;;;6.40;99.90;;;;;;5074496;28;20228;-68
2021/03/14 00:22:45;;;;;;;0.52;0.40;;;6.40;99.90;;;;;;5074031;28;20222;-68
2021/03/14 00:25:12;;;;;;;0.50;0.30;;;6.40;99.90;;;;;;5074323;28;20286;-68
2021/03/14 00:27:39;;;;;;;0.50;0.30;;;6.40;99.90;;;;;;5074046;28;20203;-68
2021/03/14 00:30:07;;;;;;;1.02;0.70;;;6.40;99.90;;;;;;5074110;28;20199;-68
2021/03/14 00:32:34;;;;;;;0.55;0.55;;;6.50;99.90;;;;;;5074101;28;20236;-68
2021/03/14 00:35:00;;;;;;;0.63;0.50;;;6.50;99.90;;;;;;5073873;28;20661;-68
2021/03/14 00:37:27;;;;;;;1.02;0.47;;;6.50;99.90;;;;;;5073930;28;20228;-68
2021/03/14 00:39:53;;;;;;;1.77;0.60;;;6.50;99.90;;;;;;5073943;28;20226;-68
2021/03/14 00:42:19;;;;;;;0.68;0.60;;;6.50;99.90;;;;;;5074177;28;20223;-68
2021/03/14 00:44:46;;;;;;;0.40;0.30;;;6.40;99.90;;;;;;5073829;28;20209;-68
2021/03/14 00:47:12;;;;;;;0.65;0.40;;;6.30;99.90;;;;;;5073849;28;20191;-68
2021/03/14 00:49:39;;;;;;;1.33;0.50;;;6.20;99.90;;;;;;5073911;28;20215;-68
2021/03/14 00:52:06;;;;;;;0.77;0.77;;;6.10;99.90;;;;;;5073608;28;20227;-68
2021/03/14 00:54:33;;;;;;;0.63;0.63;;;6.10;99.90;;;;;;5073854;28;20207;-68
2021/03/14 00:56:59;;;;;;;0.50;0.43;;;6.10;99.90;;;;;;5073525;28;20199;-68
2021/03/14 00:59:26;;;;;;;0.75;0.50;;;6.10;99.90;;;;;;5073595;28;20203;-68
2021/03/14 01:01:52;;;;;;;0.50;0.40;;;6.10;99.90;;;;;;5073687;28;20222;-68
2021/03/14 01:04:19;;;;;;;1.42;0.60;;;6.10;99.90;;;;;;5072794;28;20198;-68
2021/03/14 01:06:46;;;;;;;0.70;0.47;;;6.00;99.90;;;;;;5073552;28;20351;-68
2021/03/14 01:09:12;;;;;;;1.38;0.55;;;5.90;99.90;;;;;;5073525;28;20708;-68
2021/03/14 01:11:39;;;;;;;0.45;0.40;;;5.80;99.90;;;;;;5073598;28;20317;-68
2021/03/14 01:14:05;;;;;;;0.40;0.30;;;5.80;99.90;;;;;;5073603;28;20198;-68
2021/03/14 01:16:32;;;;;;;0.50;0.30;;;5.60;99.90;;;;;;5073447;28;20209;-68
2021/03/14 01:18:58;;;;;;;0.63;0.35;;;5.70;99.90;;;;;;5073546;28;20205;-68
2021/03/14 01:21:25;;;;;;;0.40;0.40;;;5.70;99.90;;;;;;5073332;28;20701;-68
2021/03/14 01:23:52;;;;;;;0.30;0.30;;;5.60;99.90;;;;;;5073346;28;20665;-68
2021/03/14 01:26:18;;;;;;;0.30;0.28;;;5.60;99.90;;;;;;5073257;28;20286;-68
2021/03/14 01:28:47;;;;;;;0.35;0.30;;;5.60;99.90;;;;;;5073306;28;20673;-68
2021/03/14 01:31:13;;;;;;;0.40;0.30;;;5.50;99.90;;;;;;5073469;28;20633;-68
2021/03/14 01:33:40;;;;;;;0.70;0.40;;;5.50;99.90;;;;;;5073171;28;20203;-68
2021/03/14 01:36:07;;;;;;;0.40;0.40;;;5.50;99.90;;;;;;5073215;28;20277;-68
2021/03/14 01:38:34;;;;;;;0.50;0.47;;;5.50;99.90;;;;;;5073339;28;20569;-68
2021/03/14 01:41:01;;;;;;;0.40;0.20;;;5.50;99.90;;;;;;5073276;28;20753;-68
2021/03/14 01:43:35;;;;;;;0.50;0.40;;;5.50;99.90;;;;;;5073313;28;20254;-68
2021/03/14 01:46:01;;;;;;;0.50;0.28;;;5.60;99.90;;;;;;5072960;28;20210;-68
2021/03/14 01:48:28;;;;;;;0.40;0.40;;;5.60;99.90;;;;;;5073128;28;20728;-68
2021/03/14 01:50:54;;;;;;;0.60;0.40;;;5.70;99.90;;;;;;5073266;28;20203;-68
2021/03/14 01:53:21;;;;;;;2.20;0.50;;;5.70;99.90;;;;;;5072917;28;20227;-68
2021/03/14 01:55:47;;;;;;;0.40;0.30;;;5.70;99.90;;;;;;5073099;28;20199;-68
2021/03/14 01:58:18;;;;;;;1.30;0.30;;;5.70;99.90;;;;;;5073025;28;20212;-68
2021/03/14 02:00:44;;;;;;;0.40;0.40;;;5.70;99.90;;;;;;5072944;28;20233;-68
2021/03/14 02:03:11;;;;;;;1.60;0.40;;;5.80;99.90;;;;;;5073335;28;20222;-68
2021/03/14 02:05:37;;;;;;;0.60;0.30;;;5.70;99.90;;;;;;5073155;28;20645;-68
2021/03/14 02:08:04;;;;;;;0.40;0.28;;;5.70;99.90;;;;;;5073003;28;20657;-68
2021/03/14 02:10:32;;;;;;;0.30;0.30;;;5.80;99.90;;;;;;5073105;28;20298;-68
2021/03/14 02:13:05;;;;;;;0.40;0.40;;;5.80;99.90;;;;;;5073294;28;20222;-68
2021/03/14 02:15:34;;;;;;;0.40;0.35;;;5.70;99.90;;;;;;5074042;28;20765;-68
2021/03/14 02:18:03;;;;;;;0.80;0.40;;;5.60;99.90;;;;;;5076747;28;20203;-68
2021/03/14 02:20:32;;;;;;;0.30;0.20;;;5.50;99.90;;;;;;5076736;28;20329;-68
2021/03/14 02:23:13;;;;;;;0.30;0.25;;;5.50;99.90;;;;;;5077172;28;20248;-68
2021/03/14 02:25:46;;;;;;;0.68;0.30;;;5.50;99.90;;;;;;5076888;28;20350;-68
2021/03/14 02:28:14;;;;;;;0.30;0.30;;;5.50;99.90;;;;;;5076516;28;20587;-68
2021/03/14 02:30:42;;;;;;;0.60;0.50;;;5.40;99.90;;;;;;5076543;28;20206;-68
2021/03/14 02:33:10;;;;;;;0.50;0.25;;;5.40;99.90;;;;;;5076376;28;20261;-68
2021/03/14 02:35:37;;;;;;;0.50;0.30;;;5.40;99.90;;;;;;5076427;28;20203;-68
2021/03/14 02:38:05;;;;;;;0.60;0.40;;;5.40;99.90;;;;;;5075981;28;20656;-68
2021/03/14 02:40:34;;;;;;;0.80;0.50;;;5.40;99.90;;;;;;5076247;28;20223;-68
2021/03/14 02:43:01;;;;;;;0.60;0.60;;;5.20;99.90;;;;;;5076280;28;20250;-68
2021/03/14 02:45:29;;;;;;;0.52;0.52;;;5.20;99.90;;;;;;5075955;28;20214;-68
2021/03/14 02:47:55;;;;;;;4.00;0.60;;;5.20;99.90;;;;;;5076995;28;20209;-68
2021/03/14 02:50:23;;;;;;;0.50;0.35;;;5.20;99.90;;;;;;5076518;28;20203;-68
2021/03/14 02:52:50;;;;;;;0.68;0.40;;;5.20;99.90;;;;;;5075817;28;20309;-68
2021/03/14 02:55:19;;;;;;;0.60;0.60;;;5.10;99.90;;;;;;5076132;28;20294;-68
2021/03/14 02:57:47;;;;;;;0.60;0.60;;;5.00;99.90;;;;;;5075766;28;20729;-68
2021/03/14 03:00:17;;;;;;;0.60;0.50;;;5.10;99.90;;;;;;5075791;28;20318;-68
2021/03/14 03:02:46;;;;;;;1.08;0.80;;;5.10;99.90;;;;;;5075955;28;20746;-68
2021/03/14 03:05:15;;;;;;;1.45;0.80;;;5.00;99.90;;;;;;5075860;28;20379;-68
2021/03/14 03:07:42;;;;;;;0.80;0.68;;;5.10;99.90;;;;;;5075852;28;20205;-68
2021/03/14 03:10:10;;;;;;;1.30;0.90;;;5.10;99.90;;;;;;5075782;28;20646;-68
2021/03/14 03:12:37;;;;;;;0.60;0.47;;;5.10;99.90;;;;;;5075514;28;20223;-68
2021/03/14 03:15:04;;;;;;;1.35;0.63;;;5.20;99.90;;;;;;5075991;28;20211;-68
2021/03/14 03:17:30;;;;;;;0.80;0.50;;;5.20;99.90;;;;;;5075229;28;20661;-68
2021/03/14 03:19:58;;;;;;;0.63;0.40;;;5.10;99.90;;;;;;5075563;28;20219;-68
2021/03/14 03:22:27;;;;;;;0.55;0.50;;;5.10;99.90;;;;;;5075523;28;20227;-68
2021/03/14 03:24:54;;;;;;;0.50;0.50;;;5.10;99.90;;;;;;5075295;28;20263;-68
2021/03/14 03:27:20;;;;;;;1.05;0.60;;;5.10;99.90;;;;;;5074126;28;20205;-68
2021/03/14 03:29:47;;;;;;;0.88;0.70;;;5.10;99.90;;;;;;5075506;28;20199;-68
2021/03/14 03:32:14;;;;;;;0.50;0.50;;;5.10;99.90;;;;;;5075374;28;20649;-68
2021/03/14 03:34:41;;;;;;;0.50;0.50;;;5.10;99.90;;;;;;5075712;28;20234;-68
2021/03/14 03:37:08;;;;;;;0.50;0.40;;;5.10;99.90;;;;;;5074846;28;20260;-68
2021/03/14 03:39:35;;;;;;;0.80;0.43;;;5.10;99.90;;;;;;5075146;28;20294;-68
2021/03/14 03:42:06;;;;;;;0.93;0.70;;;5.00;99.90;;;;;;5075086;28;20223;-68
2021/03/14 03:44:35;;;;;;;0.65;0.47;;;5.00;99.90;;;;;;5075162;28;20221;-68
2021/03/14 03:47:02;;;;;;;0.63;0.50;;;5.10;99.90;;;;;;5074947;28;20242;-68
2021/03/14 03:49:31;;;;;;;0.60;0.60;;;5.10;99.90;;;;;;5074947;28;20297;-68
2021/03/14 03:51:59;;;;;;;1.08;0.60;;;5.10;99.90;;;;;;5074867;28;20261;-68
2021/03/14 03:54:29;;;;;;;0.60;0.60;;;5.10;99.90;;;;;;5074943;28;20248;-68
2021/03/14 03:56:57;;;;;;;0.63;0.38;;;5.20;99.90;;;;;;5074543;28;20207;-68
2021/03/14 03:59:25;;;;;;;0.70;0.70;;;5.20;99.90;;;;;;5074831;28;20297;-68
2021/03/14 04:01:52;;;;;;;0.93;0.60;;;5.20;99.90;;;;;;5074563;28;20306;-68
2021/03/14 04:04:19;;;;;;;0.60;0.50;;;5.20;99.90;;;;;;5074494;28;20206;-68
2021/03/14 04:06:49;;;;;;;0.98;0.50;;;5.30;99.90;;;;;;5074370;28;20203;-68
2021/03/14 04:09:15;;;;;;;0.60;0.47;;;5.20;99.90;;;;;;5074575;28;20202;-68
2021/03/14 04:11:43;;;;;;;0.88;0.45;;;5.20;99.90;;;;;;5075017;28;20218;-68
2021/03/14 04:14:11;;;;;;;0.50;0.50;;;5.20;99.90;;;;;;5074694;28;20218;-68
2021/03/14 04:16:39;;;;;;;1.10;0.63;;;5.10;99.90;;;;;;5074822;28;20602;-69
2021/03/14 04:19:10;;;;;;;3.33;2.20;;;5.10;99.90;;;;;;5074937;28;20209;-69
2021/03/14 04:21:37;;;;;;;0.63;0.60;;;5.00;99.90;;;;;;5074425;28;20241;-69
2021/03/14 04:24:05;;;;;;;1.63;1.10;;;5.00;99.90;;;;;;5074577;28;20205;-69
2021/03/14 04:26:32;;;;;;;0.73;0.73;;;5.00;99.90;;;;;;5074365;28;20205;-68
2021/03/14 04:29:00;;;;;;;0.75;0.65;;;4.90;99.90;;;;;;5074286;28;20228;-69
2021/03/14 04:31:27;;;;;;;0.63;0.55;;;4.90;99.90;;;;;;5074542;28;20195;-69
2021/03/14 04:33:55;;;;;;;1.20;0.60;;;4.90;99.90;;;;;;5074073;28;20844;-69
2021/03/14 04:36:22;;;;;;;2.15;0.88;;;4.90;99.90;;;;;;5074330;28;20209;-69
2021/03/14 04:38:48;;;;;;;0.70;0.57;;;4.90;99.90;;;;;;5074011;28;20213;-68
2021/03/14 04:41:17;;;;;;;1.02;0.65;;;4.90;99.90;;;;;;5074025;28;20620;-68
2021/03/14 04:43:44;;;;;;;0.90;0.70;;;5.00;99.90;;;;;;5074027;28;20213;-68
2021/03/14 04:46:13;;;;;;;1.85;0.52;;;4.90;99.90;;;;;;5073524;28;20329;-68
2021/03/14 04:48:40;;;;;;;1.77;0.90;;;4.90;99.90;;;;;;5073801;28;20550;-68
2021/03/14 04:51:06;;;;;;;3.17;0.70;;;4.90;99.90;;;;;;5073790;28;20602;-68
2021/03/14 04:53:35;;;;;;;1.20;0.70;;;4.80;99.90;;;;;;5073773;28;20656;-68
2021/03/14 04:56:03;;;;;;;2.25;1.00;;;4.70;99.90;;;;;;5073605;28;20202;-69
2021/03/14 04:58:31;;;;;;;0.85;0.80;;;4.70;99.90;;;;;;5073724;28;20198;-68
2021/03/14 05:01:02;;;;;;;0.60;0.50;;;4.70;99.90;;;;;;5073613;28;20357;-68
2021/03/14 05:03:31;;;;;;;0.65;0.65;;;4.70;99.90;;;;;;5073694;28;20618;-68
2021/03/14 05:05:59;;;;;;;0.68;0.55;;;4.70;99.90;;;;;;5073256;28;20763;-68
2021/03/14 05:08:27;;;;;;;0.88;0.60;;;4.70;99.90;;;;;;5073686;28;20728;-68
2021/03/14 05:10:54;;;;;;;0.60;0.60;;;4.80;99.90;;;;;;5073594;28;20608;-68
2021/03/14 05:13:20;;;;;;;0.88;0.70;;;4.70;99.90;;;;;;5073758;28;20229;-68
2021/03/14 05:15:51;;;;;;;1.48;1.25;;;4.70;99.90;;;;;;5073814;28;20210;-68
2021/03/14 05:18:18;;;;;;;1.65;0.90;;;4.80;99.90;;;;;;5073542;28;20207;-68
2021/03/14 05:20:47;;;;;;;0.70;0.70;;;4.70;99.90;;;;;;5073513;28;20227;-68
2021/03/14 05:23:14;;;;;;;1.58;0.65;;;4.80;99.90;;;;;;5073526;28;20245;-68
2021/03/14 05:25:42;;;;;;;1.25;0.60;;;4.80;99.90;;;;;;5073527;28;20199;-68
2021/03/14 05:28:09;;;;;;;1.13;0.70;;;4.80;99.90;;;;;;5073268;28;20248;-68
2021/03/14 05:30:35;;;;;;;0.73;0.40;;;4.90;99.90;;;;;;5073422;28;20199;-68
2021/03/14 05:33:03;;;;;;;0.77;0.77;;;4.90;99.90;;;;;;5073432;28;20313;-68
2021/03/14 05:35:30;;;;;;;0.77;0.77;;;4.90;99.90;;;;;;5073478;28;20248;-68
2021/03/14 05:37:59;;;;;;;0.68;0.68;;;4.90;99.90;;;;;;5073139;28;20202;-68
2021/03/14 05:40:27;;;;;;;0.70;0.50;;;4.90;99.90;;;;;;5073293;28;20218;-68
2021/03/14 05:42:54;;;;;;;0.65;0.63;;;4.90;99.90;;;;;;5073067;28;20593;-68
2021/03/14 05:45:21;;;;;;;1.17;0.70;;;4.90;99.90;;;;;;5073218;28;20213;-68
2021/03/14 05:47:48;;;;;;;0.50;0.40;;;4.90;99.90;;;;;;5073258;28;20297;-68
2021/03/14 05:50:17;;;;;;;2.67;1.27;;;4.90;99.90;;;;;;5073985;28;20289;-68
2021/03/14 05:52:44;;;;;;;3.88;0.95;;;4.90;99.90;;;;;;5077111;28;20305;-68
2021/03/14 05:55:15;;;;;;;1.80;0.60;;;4.90;99.90;;;;;;5077284;28;20294;-69
2021/03/14 05:57:45;;;;;;;1.20;0.60;;;4.90;99.90;;;;;;5077375;28;20263;-68
2021/03/14 06:00:22;;;;;;;1.30;0.75;;;4.80;99.90;;;;;;5077086;28;20636;-68
2021/03/14 06:02:49;;;;;;;0.60;0.60;;;4.80;99.90;;;;;;5076790;28;20268;-68
2021/03/14 06:05:15;;;;;;;0.90;0.68;;;4.80;99.90;;;;;;5077051;28;20202;-68
2021/03/14 06:07:41;;;;;;;1.25;0.93;;;4.80;99.90;;;;;;5076576;28;20234;-68
2021/03/14 06:10:08;;;;;;;1.40;1.00;;;4.80;99.90;;;;;;5076852;28;20202;-68
2021/03/14 06:12:36;;;;;;;0.63;0.63;;;4.80;99.90;;;;;;5076910;28;20265;-68
2021/03/14 06:15:03;;;;;;;0.75;0.50;;;4.80;99.90;;;;;;5076636;28;20293;-68
2021/03/14 06:17:29;;;;;;;0.50;0.50;;;4.90;99.90;;;;;;5076520;28;20304;-68
2021/03/14 06:19:56;;;;;;;1.00;0.90;;;4.90;99.90;;;;;;5076681;28;20230;-68
2021/03/14 06:22:24;;;;;;;2.78;0.80;;;4.90;99.90;;;;;;5076515;28;20679;-68
2021/03/14 06:24:51;;;;;;;0.75;0.75;;;4.90;99.90;;;;;;5076685;28;20293;-68
2021/03/14 06:27:32;;;;;;;1.00;0.80;;;4.90;99.90;;;;;;5076417;28;20205;-68
2021/03/14 06:30:00;;;;;;;5.57;2.85;;;4.90;99.90;;;;;;5076560;28;20228;-68
2021/03/14 06:32:27;;;;;;;7.25;1.70;;;4.90;99.90;;;;;;5076394;28;20225;-68
2021/03/14 06:35:12;;;;;;;1.00;1.00;;;5.00;99.90;;;;;;5076126;28;20737;-68
2021/03/14 06:37:38;;;;;;;0.70;0.70;;;5.00;99.90;;;;;;5076334;28;20272;-68
2021/03/14 06:40:12;;;;;;;1.08;1.00;;;5.00;99.90;;;;;;5076147;28;20745;-68
2021/03/14 06:42:39;;;;;;;1.10;1.00;;;5.00;99.90;;;;;;5076135;28;20313;-68
2021/03/14 06:45:09;;;;;;;1.25;0.65;;;5.00;99.90;;;;;;5076478;28;20296;-68
2021/03/14 06:47:43;;;;;;;1.15;1.05;;;5.10;99.90;;;;;;5076146;28;20191;-68
2021/03/14 06:50:16;;;;;;;5.07;0.90;;;5.20;99.90;;;;;;5076054;28;20234;-68
2021/03/14 06:52:58;;;;;;;2.28;1.10;;;5.20;99.90;;;;;;5076154;28;20431;-68
2021/03/14 06:55:26;;;;;;;0.57;0.55;;;5.20;99.90;;;;;;5075917;28;20293;-68
2021/03/14 06:57:52;;;;;;;1.80;1.08;;;5.20;99.90;;;;;;5075679;28;20614;-68
2021/03/14 07:00:21;;;;;;;2.65;1.23;;;5.30;99.90;;;;;;5075771;28;20318;-68
2021/03/14 07:02:47;;;;;;;1.80;0.93;;;5.30;99.90;;;;;;5074285;28;20309;-68
2021/03/14 07:05:14;;;;;;;1.15;0.85;;;5.30;99.90;;;;;;5075921;28;20199;-68
2021/03/14 07:07:41;;;;;;;1.98;0.98;;;5.30;99.90;;;;;;5075753;28;20632;-68
2021/03/14 07:10:10;;;;;;;1.90;0.98;;;5.40;99.90;;;;;;5075857;28;20538;-68
2021/03/14 07:12:38;;;;;;;0.95;0.80;;;5.50;99.90;;;;;;5075638;28;20727;-68
2021/03/14 07:15:13;;;;;;;1.00;0.70;;;5.60;99.90;;;;;;5075712;28;20297;-68
2021/03/14 07:17:41;;;;;;;1.60;1.38;;;5.60;99.90;;;;;;5075340;28;20683;-68
2021/03/14 07:20:10;;;;;;;1.45;1.10;;;5.60;99.90;;;;;;5075398;28;20705;-68
2021/03/14 07:22:38;;;;;;;3.65;0.90;;;5.70;99.90;;;;;;5075380;28;20229;-68
2021/03/14 07:25:06;;;;;;;0.82;0.80;;;5.70;99.90;;;;;;5075458;28;20203;-68
2021/03/14 07:27:33;;;;;;;0.95;0.85;;;5.70;99.90;;;;;;5075360;28;20213;-68
2021/03/14 07:30:01;;;;;;;1.00;0.75;;;5.70;99.90;;;;;;5075478;28;20205;-68
2021/03/14 07:32:28;;;;;;;2.08;0.80;;;5.70;99.90;;;;;;5075170;28;20261;-68
2021/03/14 07:35:06;;;;;;;3.20;0.80;;;5.80;99.90;;;;;;5075496;28;20199;-68
2021/03/14 07:37:32;;;;;;;2.50;1.95;;;6.00;99.90;;;;;;5074753;28;20671;-68
2021/03/14 07:39:58;;;;;;;1.55;0.88;;;6.10;99.90;;;;;;5075500;28;20209;-68
2021/03/14 07:42:25;;;;;;;2.30;1.08;;;6.20;99.90;;;;;;5075234;28;20258;-68
2021/03/14 07:44:51;;;;;;;3.22;0.80;;;6.30;99.90;;;;;;5075048;28;20286;-68
2021/03/14 07:47:20;;;;;;;4.18;1.40;;;6.30;99.90;;;;;;5075040;28;20221;-68
2021/03/14 07:49:50;;;;;;;1.17;1.08;;;6.40;99.90;;;;;;5075017;28;20260;-68
2021/03/14 07:52:24;;;;;;;4.18;1.20;;;6.40;99.90;;;;;;5074734;28;20704;-68
2021/03/14 07:54:56;;;;;;;9.48;1.33;;;6.30;99.90;;;;;;5075209;28;20293;-68
2021/03/14 07:57:24;;;;;;;1.27;0.80;;;6.30;99.90;;;;;;5074799;28;20203;-68
2021/03/14 07:59:51;;;;;;;3.00;1.13;;;6.30;99.90;;;;;;5074878;28;20203;-68
2021/03/14 08:02:31;;;;;;;2.88;1.20;;;6.10;99.90;;;;;;5074752;28;20223;-68
2021/03/14 08:05:00;;;;;;;2.92;1.05;;;6.20;99.90;;;;;;5074743;28;20252;-68
2021/03/14 08:07:47;;;;;;;1.35;1.05;;;6.20;99.90;;;;;;5074543;28;20202;-68
2021/03/14 08:10:34;;;;;;;0.80;0.80;;;6.10;99.90;;;;;;5074606;28;20199;-68
2021/03/14 08:13:01;;;;;;;2.38;1.30;;;6.10;99.90;;;;;;5074067;28;20271;-68
2021/03/14 08:15:29;;;;;;;2.50;1.15;;;6.10;99.90;;;;;;5074344;28;20203;-68
2021/03/14 08:17:58;;;;;;;2.58;1.20;;;6.10;99.90;;;;;;5074526;28;20288;-68
2021/03/14 08:20:42;;;;;;;2.25;1.45;;;6.30;99.90;;;;;;5074475;28;20219;-68
2021/03/14 08:23:10;;;;;;;1.85;1.05;;;6.30;99.90;;;;;;5074441;28;20245;-68
2021/03/14 08:25:43;;;;;;;2.80;0.90;;;6.40;99.90;;;;;;5074408;28;20210;-68
2021/03/14 08:28:31;;;;;;;2.20;0.80;;;6.60;99.90;;;;;;5074207;28;20206;-68
2021/03/14 08:30:59;;;;;;;2.40;1.10;;;6.70;99.90;;;;;;5074097;28;20234;-68
2021/03/14 08:33:29;;;;;;;2.85;0.90;;;6.80;99.90;;;;;;5074179;28;20222;-68
2021/03/14 08:35:57;;;;;;;1.55;0.80;;;6.90;99.90;;;;;;5074065;28;20256;-68
2021/03/14 08:38:29;;;;;;;3.45;1.20;;;7.00;99.90;;;;;;5074125;28;20252;-68
2021/03/14 08:41:22;;;;;;;4.15;1.50;;;7.10;99.90;;;;;;5073855;28;20784;-68
2021/03/14 08:43:51;;;;;;;1.02;0.93;;;7.30;99.90;;;;;;5074127;28;20569;-68
2021/03/14 08:46:17;;;;;;;3.40;1.13;;;7.60;99.90;;;;;;5073503;28;20211;-68
2021/03/14 08:48:44;;;;;;;1.13;0.90;;;7.80;99.90;;;;;;5073975;28;20571;-68
2021/03/14 08:51:11;;;;;;;4.75;1.00;;;7.80;99.90;;;;;;5073733;28;20199;-68
2021/03/14 08:53:41;;;;;;;1.55;0.90;;;7.60;99.90;;;;;;5073893;28;20233;-68
2021/03/14 08:56:09;;;;;;;1.50;0.90;;;7.50;99.90;;;;;;5073680;28;20202;-68
2021/03/14 08:58:37;;;;;;;2.85;1.00;;;7.40;99.90;;;;;;5073687;28;20676;-68
2021/03/14 09:01:05;;;;;;;1.60;0.93;;;7.30;99.90;;;;;;5073756;28;20226;-68
2021/03/14 09:03:32;;;;;;;0.85;0.52;;;7.30;99.90;;;;;;5073457;28;20271;-68
2021/03/14 09:06:24;;;;;;;2.42;0.70;;;7.10;99.90;;;;;;5073562;28;20202;-68
2021/03/14 09:08:59;;;;;;;3.03;0.80;;;7.00;99.90;;;;;;5073749;28;20739;-68
2021/03/14 09:11:43;;;;;;;0.80;0.50;;;7.00;99.90;;;;;;5073632;28;20221;-68
2021/03/14 09:14:33;;;;;;;1.55;0.70;;;7.10;99.90;;;;;;5073898;28;20203;-68
2021/03/14 09:17:02;;;;;;;1.48;1.33;;;6.90;99.90;;;;;;5074026;28;20198;-68
2021/03/14 09:19:31;;;;;;;1.00;0.60;;;7.00;99.90;;;;;;5073940;28;20199;-68
2021/03/14 09:22:00;;;;;;;1.00;0.70;;;7.00;99.90;;;;;;5073605;28;20566;-68
2021/03/14 09:24:39;;;;;;;0.80;0.70;;;7.00;99.90;;;;;;5073573;28;20198;-68
2021/03/14 09:27:09;;;;;;;2.05;0.82;;;7.10;99.90;;;;;;5073189;28;20202;-68
2021/03/14 09:29:42;;;;;;;1.50;0.60;;;7.20;99.90;;;;;;5073637;28;20259;-68
2021/03/14 09:32:33;;;;;;;3.33;0.80;;;7.30;99.90;;;;;;5073679;28;20587;-68
2021/03/14 09:35:20;;;;;;;0.77;0.77;;;7.40;99.90;;;;;;5074022;28;20216;-68
2021/03/14 09:37:49;;;;;;;1.85;0.65;;;7.60;99.90;;;;;;5073571;28;20718;-68
2021/03/14 09:40:20;;;;;;;0.80;0.80;;;7.70;99.90;;;;;;5073723;28;20290;-68
2021/03/14 09:42:48;;;;;;;1.02;0.95;;;7.60;99.60;;;;;;5073337;28;20226;-68
2021/03/14 09:45:16;;;;;;;1.90;0.70;;;7.60;99.90;;;;;;5073355;28;20224;-68
2021/03/14 09:48:00;;;;;;;1.02;0.80;;;7.70;99.90;;;;;;5073425;28;20256;-68
2021/03/14 09:50:27;;;;;;;0.80;0.65;;;7.90;98.90;;;;;;5073803;28;20234;-68
2021/03/14 09:52:54;;;;;;;0.82;0.70;;;8.00;98.80;;;;;;5073614;28;20226;-68
2021/03/14 09:55:25;;;;;;;0.50;0.50;;;8.00;98.40;;;;;;5073495;28;20230;-68
2021/03/14 09:57:51;;;;;;;1.15;1.00;;;8.00;99.40;;;;;;5073179;28;20290;-68
2021/03/14 10:00:23;;;;;;;1.08;0.65;;;7.80;98.60;;;;;;5073047;28;20237;-68
2021/03/14 10:02:50;;;;;;;3.45;0.80;;;7.70;98.90;;;;;;5073403;28;20747;-68
2021/03/14 10:05:16;;;;;;;2.65;0.98;;;7.70;99.50;;;;;;5073291;28;20206;-68
2021/03/14 10:07:42;;;;;;;1.60;0.80;;;7.60;99.40;;;;;;5072970;28;20213;-68
2021/03/14 10:10:11;;;;;;;3.28;1.00;;;7.50;99.50;;;;;;5072912;28;20764;-68
2021/03/14 10:12:39;;;;;;;4.50;2.35;;;7.50;99.90;;;;;;5073105;28;20638;-68
2021/03/14 10:15:06;;;;;;;1.15;0.50;;;7.50;99.90;;;;;;5073005;28;20202;-68
2021/03/14 10:17:34;;;;;;;3.35;0.68;;;7.50;98.50;;;;;;5072676;28;20294;-68
2021/03/14 10:20:00;;;;;;;0.70;0.70;;;7.40;99.20;;;;;;5073034;28;20203;-68
2021/03/14 10:22:31;;;;;;;2.38;1.10;;;7.40;99.60;;;;;;5072892;28;20314;-68
2021/03/14 10:24:57;;;;;;;0.77;0.77;;;7.40;99.90;;;;;;5073053;28;20294;-68
2021/03/14 10:27:24;;;;;;;1.35;0.82;;;7.50;99.90;;;;;;5072675;28;20294;-68
2021/03/14 10:29:57;;;;;;;1.65;0.65;;;7.60;99.90;;;;;;5073155;28;20209;-68
2021/03/14 10:32:25;;;;;;;2.80;1.00;;;7.80;99.90;;;;;;5072860;28;20310;-68
2021/03/14 10:34:53;;;;;;;0.77;0.40;;;7.90;99.90;;;;;;5072935;28;20263;-68
2021/03/14 10:37:31;;;;;;;0.88;0.60;;;7.80;98.80;;;;;;5074893;28;20248;-68
2021/03/14 10:40:02;;;;;;;1.80;1.00;;;7.70;98.90;;;;;;5076462;28;20224;-68
2021/03/14 10:42:40;;;;;;;1.48;0.60;;;7.70;99.90;;;;;;5076080;28;20227;-68
2021/03/14 10:45:11;;;;;;;1.05;0.77;;;7.80;99.90;;;;;;5076295;28;20210;-70
2021/03/14 10:47:38;;;;;;;0.75;0.63;;;7.80;98.30;;;;;;5075906;28;20657;-68
2021/03/14 10:50:16;;;;;;;0.82;0.68;;;7.90;99.50;;;;;;5076226;28;20664;-69
2021/03/14 10:52:44;;;;;;;1.02;0.70;;;8.00;99.60;;;;;;5075995;28;20594;-69
2021/03/14 10:55:27;;;;;;;0.80;0.70;;;8.00;98.30;;;;;;5075850;28;20203;-70
2021/03/14 10:58:08;;;;;;;1.40;0.75;;;8.10;99.10;;;;;;5075977;28;20209;-70
2021/03/14 11:00:43;;;;;;;1.20;0.60;;;8.40;98.70;;;;;;5075809;28;20264;-70
2021/03/14 11:03:23;;;;;;;1.55;1.15;;;8.80;98.50;;;;;;5075729;28;20227;-70
2021/03/14 11:05:49;;;;;;;2.78;0.43;;;9.40;97.20;;;;;;5075991;28;20234;-70
2021/03/14 11:08:17;;;;;;;0.63;0.63;;;10.10;92.80;;;;;;5075542;28;20206;-70
2021/03/14 11:10:54;;;;;;;0.90;0.90;;;10.70;91.00;;;;;;5075869;28;20649;-70
2021/03/14 11:13:20;;;;;;;2.00;0.73;;;10.60;89.20;;;;;;5075524;28;20704;-70
2021/03/14 11:15:47;;;;;;;3.15;0.95;;;10.20;90.10;;;;;;5076076;28;20198;-70
2021/03/14 11:18:24;;;;;;;1.13;0.80;;;9.80;88.60;;;;;;5075479;28;20224;-70
2021/03/14 11:20:50;;;;;;;1.05;0.77;;;9.40;86.90;;;;;;5075464;28;20222;-69
2021/03/14 11:23:16;;;;;;;0.70;0.70;;;8.90;88.40;;;;;;5075761;28;20254;-70
2021/03/14 11:25:43;;;;;;;1.55;0.85;;;8.70;88.40;;;;;;5075618;28;20744;-70
2021/03/14 11:28:09;;;;;;;5.68;0.68;;;8.50;89.00;;;;;;5075397;28;20293;-70
2021/03/14 11:30:37;;;;;;;0.63;0.63;;;8.50;89.70;;;;;;5075756;28;20673;-69
2021/03/14 11:33:05;;;;;;;0.98;0.73;;;8.50;90.50;;;;;;5075408;28;20223;-70
2021/03/14 11:35:34;;;;;;;1.45;0.70;;;8.50;89.70;;;;;;5075589;28;20213;-70
2021/03/14 11:38:00;;;;;;;1.50;0.65;;;8.40;89.90;;;;;;5075209;28;20259;-70
2021/03/14 11:40:27;;;;;;;1.17;0.95;;;8.50;88.40;;;;;;5075210;28;20298;-70
2021/03/14 11:42:53;;;;;;;2.05;1.00;;;8.70;89.30;;;;;;5074944;28;20309;-70
2021/03/14 11:45:19;;;;;;;1.38;0.50;;;8.80;89.10;;;;;;5074932;28;20580;-70
2021/03/14 11:47:46;;;;;;;2.28;0.82;;;8.80;88.10;;;;;;5074034;28;20221;-70
2021/03/14 11:50:14;;;;;;;0.65;0.60;;;8.60;86.30;;;;;;5074719;28;20224;-70
2021/03/14 11:52:42;;;;;;;1.63;0.70;;;8.50;88.30;;;;;;5075052;28;20554;-70
2021/03/14 11:55:09;;;;;;;4.30;1.00;;;8.60;87.90;;;;;;5075252;28;20202;-70
2021/03/14 11:57:36;;;;;;;0.40;0.40;;;8.50;88.10;;;;;;5074559;28;20631;-70
2021/03/14 12:00:03;;;;;;;0.73;0.73;;;8.40;87.30;;;;;;5074592;28;20390;-70
2021/03/14 12:02:29;;;;;;;0.95;0.80;;;8.40;88.70;;;;;;5074703;28;20314;-70
2021/03/14 12:04:55;;;;;;;1.73;0.80;;;8.40;90.10;;;;;;5074859;28;20289;-70
2021/03/14 12:07:24;;;;;;;0.60;0.52;;;8.40;89.60;;;;;;5074650;28;20290;-70
2021/03/14 12:09:51;;;;;;;0.40;0.22;;;8.40;90.00;;;;;;5074670;28;20209;-70
2021/03/14 12:12:19;;;;;;;1.77;0.70;;;8.40;90.00;;;;;;5074898;28;20229;-70
2021/03/14 12:14:45;;;;;;;0.50;0.50;;;8.30;90.20;;;;;;5074759;28;20198;-70
2021/03/14 12:17:11;;;;;;;0.40;0.40;;;8.30;90.70;;;;;;5074468;28;20198;-70
2021/03/14 12:19:38;;;;;;;0.50;0.40;;;8.20;91.10;;;;;;5075078;28;20241;-70
2021/03/14 12:22:04;;;;;;;1.38;0.95;;;8.10;91.40;;;;;;5074362;28;20231;-70
2021/03/14 12:24:34;;;;;;;0.40;0.40;;;8.00;92.40;;;;;;5074584;28;20203;-70
2021/03/14 12:27:01;;;;;;;1.92;0.70;;;8.00;92.80;;;;;;5074424;28;20674;-69
2021/03/14 12:29:27;;;;;;;1.58;0.70;;;8.10;93.50;;;;;;5074757;28;20205;-69
2021/03/14 12:31:53;;;;;;;0.68;0.68;;;8.10;94.10;;;;;;5074389;28;20774;-69
2021/03/14 12:34:19;;;;;;;1.42;0.77;;;8.00;95.10;;;;;;5075229;28;20202;-69
2021/03/14 12:36:46;;;;;;;1.20;0.90;;;7.90;96.40;;;;;;5074274;28;20221;-70
2021/03/14 12:39:12;;;;;;;1.00;0.52;;;7.90;97.30;;;;;;5074387;28;20569;-69
2021/03/14 12:41:39;;;;;;;0.50;0.50;;;7.80;98.20;;;;;;5074080;28;20240;-70
2021/03/14 12:44:06;;;;;;;0.95;0.68;;;7.50;99.90;;;;;;5074224;28;20337;-69
2021/03/14 12:46:33;;;;;;;0.70;0.65;;;7.20;99.90;;;;;;5074035;28;20225;-70
2021/03/14 12:48:59;;;;;;;1.05;0.57;;;7.10;99.90;;;;;;5074541;28;20202;-70
2021/03/14 12:51:25;;;;;;;4.57;0.70;;;6.90;99.90;;;;;;5074098;28;20545;-70
2021/03/14 12:53:52;;;;;;;0.50;0.43;;;6.70;99.90;;;;;;5074277;28;20198;-70
2021/03/14 12:56:18;;;;;;;2.90;0.60;;;6.70;99.90;;;;;;5074216;28;20293;-69
2021/03/14 12:58:45;;;;;;;1.00;0.80;;;6.70;99.90;;;;;;5073881;28;20209;-69
2021/03/14 13:01:11;;;;;;;1.35;0.90;;;6.70;99.90;;;;;;5073705;28;20229;-69
2021/03/14 13:03:38;;;;;;;2.08;0.70;;;6.60;99.90;;;;;;5073778;28;20225;-69
2021/03/14 13:06:04;;;;;;;1.20;0.68;;;6.70;99.90;;;;;;5073409;28;20248;-69